createdAt,value
2022-12-01T00:01:31.926Z,4.45
2022-12-01T00:03:59.118Z,5.18
2022-12-01T00:06:26.253Z,4.30
2022-12-01T00:09:16.497Z,4.75
2022-12-01T00:11:46.277Z,5.55
2022-12-01T00:14:13.573Z,4.40
2022-12-01T00:16:43.440Z,3.95
2022-12-01T00:19:10.488Z,4.63
2022-12-01T00:21:37.637Z,4.63
2022-12-01T00:24:05.042Z,4.50
2022-12-01T00:26:32.060Z,4.60
2022-12-01T00:28:59.689Z,4.70
2022-12-01T00:31:27.348Z,4.15
2022-12-01T00:33:55.075Z,4.15
2022-12-01T00:36:25.271Z,3.55
2022-12-01T00:38:56.682Z,4.85
2022-12-01T00:41:28.359Z,3.85
2022-12-01T00:43:55.505Z,4.32
2022-12-01T00:46:28.326Z,4.43
2022-12-01T00:49:07.479Z,4.25
2022-12-01T00:51:34.748Z,2.60
2022-12-01T00:54:06.758Z,3.88
2022-12-01T00:56:36.157Z,3.17
2022-12-01T00:59:05.528Z,4.07
2022-12-01T01:01:33.486Z,3.58
2022-12-01T01:04:00.845Z,3.00
2022-12-01T01:06:32.516Z,3.13
2022-12-01T01:11:33.211Z,3.28
2022-12-01T01:14:08.416Z,2.80
2022-12-01T01:16:37.820Z,3.03
2022-12-01T01:19:05.038Z,2.63
2022-12-01T01:21:34.994Z,3.08
2022-12-01T01:24:02.450Z,2.17
2022-12-01T01:26:31.763Z,2.80
2022-12-01T01:29:03.847Z,2.25
2022-12-01T01:31:31.807Z,2.92
2022-12-01T01:34:00.247Z,2.97
2022-12-01T01:36:30.043Z,2.67
2022-12-01T01:38:57.371Z,2.92
2022-12-01T01:41:29.775Z,3.40
2022-12-01T01:44:05.796Z,2.58
2022-12-01T01:46:36.951Z,2.92
2022-12-01T01:49:08.888Z,2.15
2022-12-01T01:51:41.764Z,3.15
2022-12-01T01:54:15.770Z,2.08
2022-12-01T01:56:45.343Z,3.08
2022-12-01T01:59:16.810Z,2.08
2022-12-01T02:01:47.424Z,2.20
2022-12-01T02:04:16.280Z,2.78
2022-12-01T02:06:43.859Z,2.42
2022-12-01T02:09:12.877Z,2.47
2022-12-01T02:11:52.369Z,1.70
2022-12-01T02:14:47.837Z,2.40
2022-12-01T02:17:41.503Z,2.60
2022-12-01T02:20:42.472Z,2.40
2022-12-01T02:23:53.960Z,1.70
2022-12-01T02:26:46.808Z,3.75
2022-12-01T02:29:49.037Z,2.00
2022-12-01T02:32:29.777Z,2.30
2022-12-01T02:35:12.901Z,1.90
2022-12-01T02:40:29.158Z,2.17
2022-12-01T02:43:24.324Z,1.77
2022-12-01T02:46:15.851Z,2.00
2022-12-01T02:48:48.408Z,1.92
2022-12-01T02:51:32.251Z,2.50
2022-12-01T02:54:03.989Z,1.98
2022-12-01T02:56:43.624Z,2.08
2022-12-01T02:59:12.228Z,2.17
2022-12-01T03:02:16.212Z,2.22
2022-12-01T03:05:08.166Z,1.75
2022-12-01T03:07:41.146Z,3.83
2022-12-01T03:10:23.749Z,3.38
2022-12-01T03:13:18.040Z,2.85
2022-12-01T03:16:16.610Z,3.17
2022-12-01T03:18:47.836Z,2.53
2022-12-01T03:21:26.766Z,3.22
2022-12-01T03:24:01.971Z,4.57
2022-12-01T03:26:35.537Z,2.85
2022-12-01T03:29:11.052Z,4.32
2022-12-01T03:31:45.512Z,3.72
2022-12-01T03:34:18.124Z,3.85
2022-12-01T03:36:50.767Z,4.82
2022-12-01T03:39:23.375Z,3.55
2022-12-01T03:42:20.955Z,4.05
2022-12-01T03:44:51.910Z,3.80
2022-12-01T03:47:27.560Z,5.88
2022-12-01T03:49:55.765Z,3.45
2022-12-01T03:52:42.105Z,4.45
2022-12-01T03:55:21.926Z,4.60
2022-12-01T03:58:06.601Z,3.10
2022-12-01T04:00:35.091Z,3.47
2022-12-01T04:03:04.281Z,3.05
2022-12-01T04:05:33.963Z,2.75
2022-12-01T04:08:04.389Z,4.05
2022-12-01T04:10:34.746Z,3.15
2022-12-01T04:13:05.745Z,3.35
2022-12-01T04:15:35.551Z,3.47
2022-12-01T04:18:04.551Z,4.15
2022-12-01T04:20:34.996Z,3.10
2022-12-01T04:25:34.181Z,3.20
2022-12-01T04:28:01.475Z,2.55
2022-12-01T04:30:28.756Z,3.47
2022-12-01T04:32:57.833Z,4.15
2022-12-01T04:35:27.703Z,2.83
2022-12-01T04:37:54.878Z,3.78
2022-12-01T04:40:38.880Z,4.25
2022-12-01T04:43:06.201Z,2.42
2022-12-01T04:45:33.557Z,3.88
2022-12-01T04:48:00.661Z,4.70
2022-12-01T04:50:27.996Z,4.50
2022-12-01T04:52:55.203Z,5.20
2022-12-01T05:45:50.693Z,6.65
2022-12-01T05:48:18.414Z,5.80
2022-12-01T05:50:47.878Z,4.72
2022-12-01T05:53:15.782Z,6.53
2022-12-01T05:55:43.029Z,5.80
2022-12-01T05:58:10.815Z,5.22
2022-12-01T06:00:45.571Z,6.30
2022-12-01T06:03:16.397Z,5.15
2022-12-01T06:05:46.433Z,6.07
2022-12-01T06:08:14.007Z,6.10
2022-12-01T06:10:43.654Z,5.90
2022-12-01T06:13:10.894Z,5.70
2022-12-01T06:15:41.290Z,6.28
2022-12-01T06:18:08.474Z,4.95
2022-12-01T06:20:35.782Z,6.03
2022-12-01T06:23:05.762Z,6.95
2022-12-01T06:25:33.046Z,6.30
2022-12-01T06:28:02.826Z,6.28
2022-12-01T06:30:30.167Z,6.40
2022-12-01T06:32:57.169Z,5.38
2022-12-01T06:35:24.278Z,5.05
2022-12-01T06:37:54.406Z,5.38
2022-12-01T06:40:21.745Z,4.47
2022-12-01T06:42:51.058Z,6.53
2022-12-01T06:45:22.136Z,5.63
2022-12-01T06:47:54.211Z,6.82
2022-12-01T06:50:24.664Z,5.78
2022-12-01T06:55:25.104Z,6.85
2022-12-01T06:57:54.925Z,7.15
2022-12-01T07:00:22.729Z,7.38
2022-12-01T07:02:49.778Z,7.05
2022-12-01T07:05:27.613Z,6.35
2022-12-01T07:07:59.301Z,6.13
2022-12-01T07:10:34.326Z,5.82
2022-12-01T07:13:04.734Z,5.22
2022-12-01T07:15:32.974Z,7.80
2022-12-01T07:18:00.344Z,6.38
2022-12-01T07:20:27.707Z,6.90
2022-12-01T07:22:54.842Z,7.18
2022-12-01T07:25:22.366Z,6.63
2022-12-01T07:27:53.349Z,7.25
2022-12-01T07:30:23.095Z,7.18
2022-12-01T07:32:54.191Z,7.88
2022-12-01T07:35:24.866Z,8.05
2022-12-01T07:37:56.258Z,7.63
2022-12-01T07:40:25.439Z,6.25
2022-12-01T07:42:55.795Z,8.55
2022-12-01T07:45:30.843Z,8.50
2022-12-01T07:47:57.988Z,9.98
2022-12-01T07:50:25.696Z,9.82
2022-12-01T07:52:53.148Z,7.57
2022-12-01T07:55:23.248Z,8.77
2022-12-01T07:57:50.776Z,8.85
2022-12-01T08:00:27.720Z,9.60
2022-12-01T08:02:55.458Z,7.55
2022-12-01T08:05:23.657Z,7.75
2022-12-01T08:07:53.677Z,8.40
2022-12-01T08:10:21.138Z,8.88
2022-12-01T08:12:48.691Z,10.40
2022-12-01T08:15:16.817Z,7.95
2022-12-01T08:17:44.185Z,10.10
2022-12-01T08:20:24.170Z,10.43
2022-12-01T08:22:51.771Z,8.73
2022-12-01T08:25:21.511Z,9.23
2022-12-01T08:27:48.999Z,8.23
2022-12-01T08:30:16.529Z,7.82
2022-12-01T08:32:43.872Z,7.30
2022-12-01T08:35:11.449Z,7.53
2022-12-01T08:37:38.943Z,8.77
2022-12-01T08:40:06.852Z,9.20
2022-12-01T08:42:34.125Z,7.90
2022-12-01T08:45:01.325Z,8.52
2022-12-01T08:47:31.746Z,7.43
2022-12-01T08:49:58.855Z,7.90
2022-12-01T08:52:28.130Z,8.77
2022-12-01T08:54:55.548Z,8.90
2022-12-01T08:57:25.880Z,9.35
2022-12-01T08:59:53.413Z,7.30
2022-12-01T09:02:26.550Z,9.68
2022-12-01T09:04:54.004Z,8.68
2022-12-01T09:07:26.023Z,7.18
2022-12-01T09:09:54.271Z,6.80
2022-12-01T09:12:28.764Z,7.45
2022-12-01T09:14:56.482Z,8.85
2022-12-01T09:17:28.309Z,9.07
2022-12-01T09:19:55.446Z,7.53
2022-12-01T09:22:27.105Z,5.80
2022-12-01T09:24:54.348Z,7.82
2022-12-01T09:27:22.024Z,7.47
2022-12-01T09:29:49.492Z,9.15
2022-12-01T09:32:18.160Z,7.28
2022-12-01T09:34:47.782Z,10.48
2022-12-01T09:37:15.038Z,13.15
2022-12-01T09:39:42.174Z,8.13
2022-12-01T09:42:15.550Z,8.70
2022-12-01T09:44:53.360Z,8.02
2022-12-01T09:47:31.952Z,8.52
2022-12-01T09:50:05.401Z,6.50
2022-12-01T09:52:40.352Z,9.82
2022-12-01T09:57:44.009Z,7.63
2022-12-01T10:00:34.526Z,6.88
2022-12-01T10:03:10.691Z,8.43
2022-12-01T10:09:00.236Z,7.22
2022-12-01T10:11:37.738Z,7.15
2022-12-01T10:14:19.474Z,6.78
2022-12-01T10:17:19.478Z,8.18
2022-12-01T10:20:07.011Z,7.85
2022-12-01T10:22:56.050Z,7.85
2022-12-01T10:25:28.736Z,7.00
2022-12-01T10:28:11.316Z,7.32
2022-12-01T10:30:51.681Z,7.22
2022-12-01T10:33:35.853Z,7.20
2022-12-01T10:36:09.165Z,7.10
2022-12-01T10:38:39.463Z,6.35
2022-12-01T10:41:12.524Z,6.55
2022-12-01T10:43:44.104Z,7.22
2022-12-01T10:46:25.022Z,8.00
2022-12-01T10:48:57.468Z,6.78
2022-12-01T10:51:26.403Z,7.22
2022-12-01T10:54:07.075Z,7.00
2022-12-01T10:56:41.812Z,7.60
2022-12-01T10:59:31.936Z,7.32
2022-12-01T11:02:00.922Z,6.63
2022-12-01T11:04:46.625Z,7.78
2022-12-01T11:07:46.290Z,6.97
2022-12-01T11:10:26.287Z,8.18
2022-12-01T11:12:59.322Z,9.32
2022-12-01T11:15:30.717Z,6.75
2022-12-01T11:18:29.744Z,7.55
2022-12-01T11:21:26.166Z,6.65
2022-12-01T11:23:56.193Z,6.28
2022-12-01T11:26:27.693Z,6.75
2022-12-01T11:28:58.576Z,8.70
2022-12-01T11:31:48.856Z,7.82
2022-12-01T11:34:20.761Z,5.95
2022-12-01T11:36:54.817Z,6.10
2022-12-01T11:39:32.587Z,6.18
2022-12-01T11:42:04.922Z,6.60
2022-12-01T11:44:50.727Z,6.35
2022-12-01T11:47:26.968Z,6.10
2022-12-01T11:50:00.409Z,6.40
2022-12-01T11:52:31.895Z,5.55
2022-12-01T11:55:10.188Z,6.47
2022-12-01T11:57:46.725Z,5.35
2022-12-01T12:00:15.597Z,6.43
2022-12-01T12:03:06.078Z,6.20
2022-12-01T12:06:17.820Z,7.15
2022-12-01T12:08:51.220Z,6.88
2022-12-01T12:11:39.898Z,9.38
2022-12-01T12:14:28.345Z,8.38
2022-12-01T12:17:20.723Z,5.32
2022-12-01T12:20:07.292Z,5.78
2022-12-01T12:22:55.655Z,6.28
2022-12-01T12:25:59.068Z,6.82
2022-12-01T12:29:07.147Z,6.25
2022-12-01T12:31:41.988Z,5.72
2022-12-01T12:34:23.715Z,6.78
2022-12-01T12:37:24.489Z,5.18
2022-12-01T12:40:11.552Z,5.88
2022-12-01T12:42:52.429Z,6.53
2022-12-01T12:45:36.345Z,5.72
2022-12-01T12:48:23.900Z,7.28
2022-12-01T12:51:06.558Z,8.32
2022-12-01T12:53:50.677Z,6.53
2022-12-01T12:56:23.303Z,8.73
2022-12-01T12:59:00.154Z,6.25
2022-12-01T13:01:44.883Z,7.47
2022-12-01T13:04:26.376Z,8.10
2022-12-01T13:07:23.311Z,6.03
2022-12-01T13:10:01.121Z,7.57
2022-12-01T13:12:32.989Z,6.03
2022-12-01T13:15:13.875Z,6.95
2022-12-01T13:17:46.584Z,6.28
2022-12-01T13:20:18.448Z,6.82
2022-12-01T13:22:47.437Z,5.70
2022-12-01T13:25:18.756Z,6.78
2022-12-01T13:27:51.614Z,6.10
2022-12-01T13:30:22.364Z,6.38
2022-12-01T13:32:57.885Z,4.63
2022-12-01T13:35:35.165Z,6.32
2022-12-01T13:38:21.060Z,4.40
2022-12-01T13:40:52.286Z,4.30
2022-12-01T13:43:23.684Z,3.78
2022-12-01T13:46:06.046Z,6.22
2022-12-01T13:48:39.711Z,6.60
2022-12-01T13:51:08.999Z,6.15
2022-12-01T13:53:37.952Z,4.45
2022-12-01T13:56:17.519Z,4.55
2022-12-01T13:58:50.336Z,5.45
2022-12-01T14:01:25.757Z,5.53
2022-12-01T14:04:02.580Z,4.30
2022-12-01T14:06:41.576Z,3.63
2022-12-01T14:09:28.167Z,3.65
2022-12-01T14:12:09.276Z,5.00
2022-12-01T14:14:39.716Z,3.42
2022-12-01T14:17:28.791Z,3.58
2022-12-01T14:20:08.483Z,4.50
2022-12-01T14:22:44.516Z,4.95
2022-12-01T14:25:27.123Z,4.35
2022-12-01T14:28:06.960Z,4.68
2022-12-01T14:30:40.193Z,5.18
2022-12-01T14:33:52.452Z,4.05
2022-12-01T14:36:52.459Z,4.35
2022-12-01T14:39:35.721Z,3.47
2022-12-01T14:42:46.267Z,4.07
2022-12-01T14:45:20.119Z,4.68
2022-12-01T14:48:01.939Z,4.35
2022-12-01T14:50:52.810Z,3.38
2022-12-01T14:53:29.332Z,3.05
2022-12-01T14:56:01.099Z,3.53
2022-12-01T14:58:32.301Z,3.90
2022-12-01T15:01:14.205Z,4.05
2022-12-01T15:03:51.327Z,3.35
2022-12-01T15:06:23.795Z,3.55
2022-12-01T15:12:11.616Z,3.75
2022-12-01T15:14:48.208Z,3.58
2022-12-01T15:20:06.173Z,3.72
2022-12-01T15:22:36.035Z,4.30
2022-12-01T15:25:15.108Z,4.50
2022-12-01T15:27:45.807Z,3.92
2022-12-01T15:30:20.295Z,4.50
2022-12-01T15:32:47.677Z,5.43
2022-12-01T15:35:23.940Z,4.93
2022-12-01T15:37:52.862Z,4.13
2022-12-01T15:43:17.455Z,5.25
2022-12-01T15:45:56.996Z,5.32
2022-12-01T15:48:32.088Z,4.05
2022-12-01T15:51:07.252Z,4.30
2022-12-01T15:53:40.240Z,4.65
2022-12-01T15:56:09.918Z,4.43
2022-12-01T15:58:43.657Z,3.78
2022-12-01T16:01:15.578Z,3.92
2022-12-01T16:03:59.029Z,3.88
2022-12-01T16:06:36.367Z,3.88
2022-12-01T16:09:07.644Z,3.83
2022-12-01T16:11:35.193Z,3.60
2022-12-01T16:14:08.117Z,3.80
2022-12-01T16:16:49.518Z,3.97
2022-12-01T16:19:16.686Z,5.78
2022-12-01T16:21:47.246Z,6.53
2022-12-01T16:26:53.140Z,4.88
2022-12-01T16:29:25.623Z,5.60
2022-12-01T16:32:19.257Z,4.90
2022-12-01T16:34:47.478Z,6.90
2022-12-01T16:39:43.141Z,5.35
2022-12-01T16:42:23.309Z,5.30
2022-12-01T16:44:53.399Z,6.28
2022-12-01T16:47:24.543Z,4.35
2022-12-01T16:49:52.841Z,4.07
2022-12-01T16:52:44.087Z,4.22
2022-12-01T16:55:38.000Z,4.13
2022-12-01T16:58:05.802Z,4.28
2022-12-01T17:00:36.275Z,3.70
2022-12-01T17:05:32.237Z,3.67
2022-12-01T17:07:59.649Z,4.30
2022-12-01T17:10:29.718Z,4.68
2022-12-01T17:12:57.735Z,6.40
2022-12-01T17:15:28.008Z,7.43
2022-12-01T17:17:55.356Z,6.93
2022-12-01T17:20:22.642Z,6.18
2022-12-01T17:22:50.074Z,5.82
2022-12-01T17:25:17.350Z,7.55
2022-12-01T17:27:45.778Z,6.93
2022-12-01T17:30:16.550Z,7.18
2022-12-01T17:32:44.253Z,6.75
2022-12-01T17:35:13.977Z,7.00
2022-12-01T17:37:41.275Z,7.22
2022-12-01T17:40:11.753Z,7.50
2022-12-01T17:45:10.525Z,5.90
2022-12-01T17:47:40.308Z,7.22
2022-12-01T17:50:13.338Z,6.55
2022-12-01T17:52:43.472Z,7.95
2022-12-01T17:55:13.522Z,7.70
2022-12-01T17:57:40.943Z,6.97
2022-12-01T18:00:19.110Z,8.52
2022-12-01T18:02:54.976Z,6.60
2022-12-01T18:05:29.517Z,6.10
2022-12-01T18:07:56.739Z,7.88
2022-12-01T18:10:26.819Z,8.90
2022-12-01T18:12:54.036Z,8.65
2022-12-01T18:15:34.461Z,6.80
2022-12-01T18:18:03.544Z,6.68
2022-12-01T18:20:30.989Z,6.85
2022-12-01T18:22:58.144Z,7.95
2022-12-01T18:25:25.602Z,7.35
2022-12-01T18:27:58.311Z,8.00
2022-12-01T18:30:26.876Z,7.80
2022-12-01T18:32:54.672Z,8.00
2022-12-01T18:35:28.827Z,8.27
2022-12-01T18:38:00.052Z,7.05
2022-12-01T18:40:27.377Z,9.15
2022-12-01T18:42:54.829Z,7.32
2022-12-01T18:45:28.915Z,8.07
2022-12-01T18:47:56.261Z,8.30
2022-12-01T18:50:23.643Z,9.07
2022-12-01T18:52:51.289Z,8.15
2022-12-01T18:55:21.440Z,7.50
2022-12-01T18:57:51.746Z,7.05
2022-12-01T19:00:26.216Z,8.60
2022-12-01T19:02:56.511Z,9.02
2022-12-01T19:05:28.600Z,10.18
2022-12-01T19:07:55.722Z,8.27
2022-12-01T19:10:23.143Z,8.18
2022-12-01T19:12:52.516Z,9.43
2022-12-01T19:15:23.375Z,8.57
2022-12-01T19:17:54.703Z,8.27
2022-12-01T19:20:21.719Z,9.68
2022-12-01T19:22:48.895Z,8.38
2022-12-01T19:25:16.254Z,8.25
2022-12-01T19:27:43.789Z,10.55
2022-12-01T19:30:14.519Z,7.88
2022-12-01T19:32:43.816Z,8.25
2022-12-01T19:35:11.329Z,10.07
2022-12-01T19:37:38.506Z,7.82
2022-12-01T19:40:09.325Z,7.95
2022-12-01T19:42:36.655Z,9.40
2022-12-01T19:45:08.119Z,6.15
2022-12-01T19:47:35.531Z,7.40
2022-12-01T19:50:05.891Z,7.85
2022-12-01T19:55:01.426Z,10.23
2022-12-01T19:57:30.929Z,8.68
2022-12-01T20:00:01.176Z,8.55
2022-12-01T20:02:32.494Z,8.57
2022-12-01T20:04:59.841Z,8.80
2022-12-01T20:07:30.235Z,8.75
2022-12-01T20:09:57.355Z,8.88
2022-12-01T20:12:30.272Z,8.77
2022-12-01T20:14:57.974Z,9.38
2022-12-01T20:17:27.947Z,9.00
2022-12-01T20:19:55.143Z,7.00
2022-12-01T20:22:22.567Z,9.45
2022-12-01T20:24:50.221Z,8.98
2022-12-01T20:27:27.759Z,6.72
2022-12-01T20:29:55.142Z,9.40
2022-12-01T20:32:28.446Z,9.70
2022-12-01T20:34:55.467Z,9.95
2022-12-01T20:37:24.913Z,9.35
2022-12-01T20:39:52.066Z,10.90
2022-12-01T20:42:28.406Z,10.48
2022-12-01T20:44:58.616Z,9.50
2022-12-01T20:47:30.306Z,10.77
2022-12-01T20:49:58.524Z,10.52
2022-12-01T20:52:25.767Z,14.52
2022-12-01T20:54:53.223Z,10.55
2022-12-01T20:57:24.373Z,12.98
2022-12-01T20:59:54.000Z,11.20
2022-12-01T21:02:27.328Z,10.10
2022-12-01T21:04:58.829Z,10.43
2022-12-01T21:07:33.500Z,9.63
2022-12-01T21:10:01.072Z,9.48
2022-12-01T21:12:48.122Z,10.98
2022-12-01T21:15:51.125Z,10.48
2022-12-01T21:18:24.927Z,10.48
2022-12-01T21:21:02.970Z,10.10
2022-12-01T21:23:30.758Z,11.05
2022-12-01T21:25:59.035Z,10.00
2022-12-01T21:28:37.069Z,10.77
2022-12-01T21:31:14.749Z,8.73
2022-12-01T21:33:42.196Z,10.60
2022-12-01T21:36:20.232Z,9.63
2022-12-01T21:38:50.450Z,10.05
2022-12-01T21:41:30.760Z,10.95
2022-12-01T21:44:07.673Z,10.00
2022-12-01T21:46:37.322Z,11.50
2022-12-01T21:49:38.631Z,11.57
2022-12-01T21:52:20.707Z,10.35
2022-12-01T21:54:49.133Z,10.00
2022-12-01T21:57:42.930Z,10.95
2022-12-01T22:00:40.196Z,11.15
2022-12-01T22:03:21.848Z,10.93
2022-12-01T22:06:13.709Z,9.20
2022-12-01T22:11:27.105Z,10.00
2022-12-01T22:14:15.576Z,10.60
2022-12-01T22:16:48.635Z,13.07
2022-12-01T22:19:15.672Z,12.18
2022-12-01T22:21:50.437Z,10.43
2022-12-01T22:24:17.365Z,9.10
2022-12-01T22:26:48.055Z,9.93
2022-12-01T22:29:28.770Z,9.98
2022-12-01T22:32:06.681Z,10.07
2022-12-01T22:34:34.213Z,8.50
2022-12-01T22:37:01.320Z,8.35
2022-12-01T22:39:35.696Z,8.40
2022-12-01T22:42:16.928Z,9.68
2022-12-01T22:44:45.080Z,10.30
2022-12-01T22:47:15.234Z,10.18
2022-12-01T22:49:42.726Z,10.43
2022-12-01T22:52:26.702Z,9.85
2022-12-01T22:54:54.118Z,9.00
2022-12-01T22:57:37.172Z,8.73
2022-12-01T23:00:17.869Z,11.55
2022-12-01T23:02:48.688Z,11.15
2022-12-01T23:05:29.700Z,9.80
2022-12-01T23:07:57.532Z,10.63
2022-12-01T23:10:42.861Z,10.48
2022-12-01T23:13:16.707Z,10.60
2022-12-01T23:15:50.314Z,9.15
2022-12-01T23:18:26.965Z,11.27
2022-12-01T23:20:59.158Z,9.80
2022-12-01T23:23:35.131Z,9.73
2022-12-01T23:26:08.871Z,10.00
2022-12-01T23:28:38.705Z,8.63
2022-12-01T23:31:06.176Z,11.07
2022-12-01T23:33:36.626Z,9.75
2022-12-01T23:36:21.641Z,9.40
2022-12-01T23:38:56.044Z,8.45
2022-12-01T23:41:28.539Z,9.80
2022-12-01T23:43:58.680Z,10.40
2022-12-01T23:46:28.510Z,9.18
2022-12-01T23:49:04.316Z,10.65
2022-12-01T23:51:37.230Z,10.20
2022-12-01T23:54:14.275Z,9.80
2022-12-01T23:56:42.865Z,9.55
2022-12-01T23:59:14.284Z,9.68
